createdAt,value
2022-10-19T00:02:51.083Z,101715.16
2022-10-19T00:06:50.675Z,101748.25
2022-10-19T00:10:50.107Z,101744.50
2022-10-19T00:14:51.992Z,101749.25
2022-10-19T00:18:51.055Z,101728.78
2022-10-19T00:22:51.290Z,101745.78
2022-10-19T00:26:50.868Z,101737.91
2022-10-19T00:30:53.476Z,101740.19
2022-10-19T00:34:53.121Z,101726.69
2022-10-19T00:38:52.840Z,101721.22
2022-10-19T00:42:57.113Z,101709.81
2022-10-19T00:47:01.670Z,101711.78
2022-10-19T00:51:01.908Z,101682.09
2022-10-19T00:55:01.790Z,101698.50
2022-10-19T00:59:01.393Z,101694.06
2022-10-19T01:03:03.149Z,101678.53
2022-10-19T01:07:05.227Z,101681.97
2022-10-19T01:11:20.921Z,101669.47
2022-10-19T01:15:33.050Z,101644.34
2022-10-19T01:19:59.980Z,101663.78
2022-10-19T01:24:28.097Z,101664.63
2022-10-19T01:28:40.966Z,101657.66
2022-10-19T01:33:01.227Z,101651.16
2022-10-19T01:37:05.025Z,101654.38
2022-10-19T01:41:15.601Z,101651.22
2022-10-19T01:45:18.901Z,101648.53
2022-10-19T01:49:24.573Z,101638.16
2022-10-19T01:53:26.440Z,101631.63
2022-10-19T01:57:30.452Z,101609.38
2022-10-19T02:01:33.164Z,101637.91
2022-10-19T02:05:37.166Z,101627.19
2022-10-19T02:09:36.984Z,101623.56
2022-10-19T02:13:38.024Z,101640.06
2022-10-19T02:17:42.135Z,101647.16
2022-10-19T02:21:44.227Z,101644.03
2022-10-19T02:25:43.832Z,101643.09
2022-10-19T02:29:43.281Z,101644.34
2022-10-19T02:33:42.897Z,101647.84
2022-10-19T02:37:44.644Z,101628.69
2022-10-19T02:41:49.154Z,101635.97
2022-10-19T02:45:57.072Z,101629.59
2022-10-19T02:49:56.564Z,101611.22
2022-10-19T02:54:01.203Z,101629.47
2022-10-19T02:58:03.755Z,101624.50
2022-10-19T03:02:03.221Z,101620.44
2022-10-19T03:06:02.849Z,101618.09
2022-10-19T03:10:04.218Z,101622.47
2022-10-19T03:14:03.771Z,101612.31
2022-10-19T03:18:03.037Z,101607.91
2022-10-19T03:22:02.704Z,101600.00
2022-10-19T03:26:06.519Z,101599.56
2022-10-19T03:30:09.318Z,101584.72
2022-10-19T03:34:08.315Z,101595.81
2022-10-19T03:38:07.898Z,101584.44
2022-10-19T03:42:09.373Z,101590.50
2022-10-19T03:46:08.649Z,101583.22
2022-10-19T03:50:10.926Z,101580.06
2022-10-19T03:54:14.507Z,101580.47
2022-10-19T03:58:16.225Z,101568.66
2022-10-19T04:02:15.944Z,101573.88
2022-10-19T04:06:21.213Z,101566.22
2022-10-19T04:10:22.159Z,101571.47
2022-10-19T04:14:32.042Z,101552.22
2022-10-19T04:18:33.245Z,101534.00
2022-10-19T04:22:32.918Z,101560.50
2022-10-19T04:26:33.114Z,101569.72
2022-10-19T04:30:34.405Z,101547.06
2022-10-19T04:34:36.434Z,101501.22
2022-10-19T04:38:38.776Z,101531.91
2022-10-19T04:42:39.569Z,101549.03
2022-10-19T04:46:50.521Z,101554.13
2022-10-19T04:51:12.025Z,101534.16
2022-10-19T04:55:12.384Z,101560.94
2022-10-19T04:59:17.814Z,101533.06
2022-10-19T05:08:34.668Z,101548.78
2022-10-19T05:17:47.063Z,101546.22
2022-10-19T05:21:54.265Z,101537.25
2022-10-19T05:26:38.101Z,101505.69
2022-10-19T05:31:50.440Z,101547.44
2022-10-19T05:37:02.958Z,101527.13
2022-10-19T05:42:15.571Z,101545.34
2022-10-19T05:46:50.297Z,101546.28
2022-10-19T05:51:20.908Z,101495.13
2022-10-19T05:55:54.598Z,101539.22
2022-10-19T06:07:28.457Z,101535.19
2022-10-19T06:12:41.066Z,101537.13
2022-10-19T06:17:19.899Z,101538.22
2022-10-19T06:27:17.176Z,101546.78
2022-10-19T08:16:28.155Z,101468.41
2022-10-19T08:20:27.944Z,101467.47
2022-10-19T08:24:26.993Z,101460.53
2022-10-19T08:28:26.987Z,101467.53
2022-10-19T08:32:28.688Z,101453.44
2022-10-19T08:36:30.893Z,101453.41
2022-10-19T08:40:32.910Z,101447.25
2022-10-19T08:44:59.115Z,101458.53
2022-10-19T08:49:02.457Z,101477.97
2022-10-19T08:53:06.648Z,101458.66
2022-10-19T08:57:16.562Z,101460.47
2022-10-19T09:01:26.384Z,101460.41
2022-10-19T09:05:38.179Z,101462.97
2022-10-19T09:09:43.719Z,101456.44
2022-10-19T09:14:04.100Z,101433.66
2022-10-19T09:18:04.822Z,101444.03
2022-10-19T09:22:09.743Z,101439.63
2022-10-19T09:26:16.786Z,101456.41
2022-10-19T09:30:21.317Z,101444.16
2022-10-19T09:34:27.993Z,101441.88
2022-10-19T09:38:33.770Z,101409.41
2022-10-19T09:42:36.463Z,101428.41
2022-10-19T09:46:48.080Z,101410.50
2022-10-19T09:50:53.393Z,101394.31
2022-10-19T09:55:03.241Z,101401.59
2022-10-19T09:59:03.192Z,101417.50
2022-10-19T10:03:03.479Z,101417.38
2022-10-19T10:07:03.151Z,101401.28
2022-10-19T10:11:13.771Z,101405.28
2022-10-19T10:15:20.010Z,101375.22
2022-10-19T10:19:20.267Z,101372.31
2022-10-19T10:23:29.741Z,101393.03
2022-10-19T10:27:36.531Z,101354.53
2022-10-19T10:31:37.955Z,101352.72
2022-10-19T10:35:38.386Z,101341.63
2022-10-19T10:39:43.370Z,101330.28
2022-10-19T10:43:56.016Z,101321.25
2022-10-19T10:47:58.822Z,101317.22
2022-10-19T10:52:02.098Z,101318.88
2022-10-19T10:56:01.853Z,101309.91
2022-10-19T11:00:11.973Z,101293.63
2022-10-19T11:04:17.425Z,101290.19
2022-10-19T11:08:24.763Z,101285.31
2022-10-19T11:12:36.829Z,101270.25
2022-10-19T11:16:44.194Z,101281.38
2022-10-19T11:20:51.268Z,101278.56
2022-10-19T11:25:00.421Z,101265.09
2022-10-19T11:29:12.040Z,101271.38
2022-10-19T11:33:24.851Z,101259.28
2022-10-19T11:37:30.782Z,101246.53
2022-10-19T11:41:41.157Z,101207.44
2022-10-19T11:45:52.020Z,101258.38
2022-10-19T11:50:04.728Z,101253.31
2022-10-19T11:54:18.582Z,101231.44
2022-10-19T11:58:34.864Z,101247.41
2022-10-19T12:03:06.697Z,101242.91
2022-10-19T12:07:30.764Z,101229.38
2022-10-19T12:11:56.081Z,101178.91
2022-10-19T12:15:58.254Z,101216.50
2022-10-19T12:20:02.847Z,101225.13
2022-10-19T12:24:08.603Z,101226.53
2022-10-19T12:28:08.454Z,101175.94
2022-10-19T12:32:10.234Z,101199.09
2022-10-19T12:36:24.802Z,101192.22
2022-10-19T12:40:36.305Z,101195.06
2022-10-19T12:44:58.724Z,101185.25
2022-10-19T12:49:36.049Z,101187.72
2022-10-19T12:53:38.165Z,101187.25
2022-10-19T14:31:00.746Z,101120.69
2022-10-19T14:36:03.997Z,101107.06
2022-10-19T14:40:30.866Z,101135.50
2022-10-19T14:44:40.575Z,101113.50
2022-10-19T14:48:42.234Z,101128.03
2022-10-19T14:52:42.738Z,101128.69
2022-10-19T14:56:55.255Z,101118.22
2022-10-19T15:00:57.670Z,101109.69
2022-10-19T15:05:00.695Z,101102.94
2022-10-19T15:09:03.671Z,101066.69
2022-10-19T15:13:06.769Z,101120.13
2022-10-19T15:17:24.498Z,101126.28
2022-10-19T15:21:23.730Z,101127.00
2022-10-19T15:25:36.500Z,101125.97
2022-10-19T15:29:35.631Z,101106.31
2022-10-19T15:33:47.152Z,101097.31
2022-10-19T15:38:15.697Z,101128.41
2022-10-19T15:42:37.602Z,101126.25
2022-10-19T15:47:00.398Z,101114.94
2022-10-19T15:51:02.410Z,101127.47
2022-10-19T15:55:03.078Z,101135.69
2022-10-19T15:59:04.956Z,101145.25
2022-10-19T16:03:07.467Z,101138.00
2022-10-19T16:07:10.907Z,101147.75
2022-10-19T16:11:15.208Z,101122.69
2022-10-19T16:15:21.962Z,101133.59
2022-10-19T16:19:22.795Z,101157.50
2022-10-19T16:23:24.440Z,101137.84
2022-10-19T16:27:24.223Z,101141.66
2022-10-19T16:31:24.000Z,101133.94
2022-10-19T16:35:25.184Z,101142.00
2022-10-19T16:39:26.184Z,101115.03
2022-10-19T16:43:26.665Z,101160.34
2022-10-19T16:47:26.456Z,101165.28
2022-10-19T16:51:37.058Z,101150.13
2022-10-19T16:55:43.058Z,101109.94
2022-10-19T17:03:58.525Z,101174.63
2022-10-19T17:07:57.624Z,101181.75
2022-10-19T17:11:59.683Z,101179.03
2022-10-19T17:16:16.589Z,101193.78
2022-10-19T17:20:27.509Z,101187.41
2022-10-19T17:24:28.015Z,101199.63
2022-10-19T17:28:32.868Z,101157.81
2022-10-19T17:32:32.143Z,101183.41
2022-10-19T17:36:34.782Z,101204.56
2022-10-19T17:40:35.262Z,101158.25
2022-10-19T17:44:37.428Z,101197.88
2022-10-19T17:48:40.169Z,101205.72
2022-10-19T17:52:40.024Z,101203.56
2022-10-19T17:56:40.815Z,101205.25
2022-10-19T18:00:43.194Z,101213.91
2022-10-19T18:04:52.796Z,101201.84
2022-10-19T18:09:00.612Z,101196.81
2022-10-19T18:13:06.638Z,101200.22
2022-10-19T18:17:09.698Z,101207.28
2022-10-19T18:21:12.456Z,101208.34
2022-10-19T18:25:21.716Z,101207.59
2022-10-19T18:29:31.493Z,101218.28
2022-10-19T18:33:39.142Z,101214.00
2022-10-19T18:37:43.334Z,101206.13
2022-10-19T18:41:56.979Z,101205.25
2022-10-19T18:45:58.054Z,101200.00
2022-10-19T18:50:00.232Z,101185.09
2022-10-19T18:54:05.050Z,101200.88
2022-10-19T18:58:05.267Z,101185.97
2022-10-19T19:02:05.840Z,101196.44
2022-10-19T19:06:09.709Z,101197.34
2022-10-19T19:10:12.715Z,101196.53
2022-10-19T19:14:15.499Z,101181.59
2022-10-19T19:22:18.463Z,101234.06
2022-10-19T19:26:21.361Z,101182.22
2022-10-19T19:30:21.177Z,101235.81
2022-10-19T19:34:20.486Z,101218.22
2022-10-19T19:43:08.172Z,101189.97
2022-10-19T19:47:29.275Z,101197.78
2022-10-19T19:51:28.694Z,101241.56
2022-10-19T19:55:42.248Z,101254.94
2022-10-19T19:59:41.613Z,101265.69
2022-10-19T20:03:46.862Z,101268.38
2022-10-19T20:07:50.418Z,101285.91
2022-10-19T20:11:52.319Z,101261.38
2022-10-19T20:16:11.407Z,101270.88
2022-10-19T20:20:12.264Z,101298.09
2022-10-19T20:24:12.156Z,101271.88
2022-10-19T20:28:14.002Z,101279.78
2022-10-19T20:32:13.263Z,101266.66
2022-10-19T20:36:15.636Z,101267.50
2022-10-19T20:40:15.611Z,101227.13
2022-10-19T20:44:20.473Z,101279.78
2022-10-19T20:48:20.231Z,101299.09
2022-10-19T20:52:19.484Z,101299.09
2022-10-19T20:56:22.735Z,101284.19
2022-10-19T21:00:24.255Z,101278.03
2022-10-19T21:04:25.269Z,101294.69
2022-10-19T21:08:24.486Z,101291.16
2022-10-19T21:12:24.307Z,101305.16
2022-10-19T21:16:30.112Z,101299.06
2022-10-19T21:20:29.870Z,101287.63
2022-10-19T21:24:31.944Z,101272.78
2022-10-19T21:28:33.933Z,101247.34
2022-10-19T21:32:52.351Z,101314.84
2022-10-19T21:36:52.714Z,101328.81
2022-10-19T21:40:51.995Z,101339.94
2022-10-19T21:45:01.029Z,101351.09
2022-10-19T21:49:02.686Z,101347.28
2022-10-19T21:53:02.573Z,101352.53
2022-10-19T21:57:02.733Z,101335.19
2022-10-19T22:01:06.377Z,101334.31
2022-10-19T22:05:08.771Z,101337.75
2022-10-19T22:09:10.770Z,101344.88
2022-10-19T22:13:10.524Z,101323.63
2022-10-19T22:17:10.119Z,101320.78
2022-10-19T22:21:14.765Z,101355.81
2022-10-19T22:25:14.519Z,101357.41
2022-10-19T22:29:14.769Z,101342.97
2022-10-19T22:33:27.654Z,101360.47
2022-10-19T22:37:29.462Z,101366.94
2022-10-19T22:41:29.289Z,101366.94
2022-10-19T22:45:29.131Z,101387.06
2022-10-19T22:49:28.794Z,101364.00
2022-10-19T22:53:30.658Z,101380.28
2022-10-19T22:57:29.752Z,101364.47
2022-10-19T23:01:30.041Z,101365.25
2022-10-19T23:05:29.635Z,101361.19
2022-10-19T23:09:30.941Z,101377.47
2022-10-19T23:13:30.315Z,101371.63
2022-10-19T23:17:29.970Z,101377.22
2022-10-19T23:21:29.085Z,101387.13
2022-10-19T23:29:34.942Z,101392.56
2022-10-19T23:33:34.924Z,101368.84
2022-10-19T23:37:35.998Z,101331.09
2022-10-19T23:41:37.525Z,101393.59
2022-10-19T23:45:37.215Z,101389.25
2022-10-19T23:49:36.918Z,101405.97
2022-10-19T23:53:40.813Z,101397.13
2022-10-19T23:57:43.250Z,101417.25
